Villanueva del Trabuco, Spain
Current Conditions -  °F | °C
As of 9:00 AM on Friday 24 Oct 2014 (Local Time) from LEMG Reporting Station
Clear Clear  
Wind Chill: 54°   Ceiling: Unl
Heat Index: 54°   Visibility: 6mi
Dew Point: 54°   Wind: 9mph
Humidity: 100%   Direction: 300°WNW
Pressure: 30.03"   Gusts: NA
Location:  37.03°N, 4.34°W
Report Text: LEMG 240700Z 30008KT CAVOK 12/12 Q1017 NOSIG
Loading
Personal Weather Stations






























Interactive Weather Map
Tropical Storm Tracking
New forecast layout! Learn more

10-Day Weather Forecast

Advertisements
Track Severe Weather on mobile